Time;durP1;ratioP1;P1;durP2;ratioP2;P2;SDS_P1;SDS_P2;PMS_P1;PMS_P2;Temp;Humidity;BMP_temperature;BMP_pressure;BME280_temperature;BME280_humidity;BME280_pressure;Samples;Min_cycle;Max_cycle;Signal;HPM_P1;HPM_P2
2022/04/23 00:01:31;;;;;;;10.48;5.43;;;15.80;82.60;;;;;;5133746;27;20046;-67
2022/04/23 00:03:57;;;;;;;10.73;5.32;;;15.80;82.80;;;;;;5132770;27;20026;-67
2022/04/23 00:06:23;;;;;;;16.00;5.65;;;15.80;83.00;;;;;;5133365;27;20031;-67
2022/04/23 00:08:49;;;;;;;14.35;5.93;;;15.70;83.00;;;;;;5133113;27;20110;-67
2022/04/23 00:11:15;;;;;;;10.43;4.90;;;15.60;83.00;;;;;;5125703;27;20486;-67
2022/04/23 00:13:41;;;;;;;14.48;4.78;;;15.60;83.00;;;;;;5133308;27;20044;-67
2022/04/23 00:16:07;;;;;;;13.65;5.13;;;15.60;83.20;;;;;;5133510;27;20118;-67
2022/04/23 00:18:33;;;;;;;9.57;4.68;;;15.60;83.30;;;;;;5132078;27;20478;-67
2022/04/23 00:20:59;;;;;;;10.88;5.30;;;15.50;83.50;;;;;;5133404;27;20038;-67
2022/04/23 00:23:25;;;;;;;12.30;5.85;;;15.50;83.80;;;;;;5132771;27;20073;-67
2022/04/23 00:25:54;;;;;;;11.50;4.93;;;15.40;83.80;;;;;;5128993;27;20049;-67
2022/04/23 00:28:20;;;;;;;11.35;5.07;;;15.50;84.20;;;;;;5119527;27;20035;-67
2022/04/23 00:30:45;;;;;;;11.43;4.72;;;15.40;84.40;;;;;;5132915;27;20073;-67
2022/04/23 00:33:11;;;;;;;10.13;5.32;;;15.40;84.40;;;;;;5132026;27;20023;-67
2022/04/23 00:35:37;;;;;;;8.55;4.93;;;15.40;84.30;;;;;;5132777;27;20038;-67
2022/04/23 00:38:05;;;;;;;10.95;5.50;;;15.40;84.80;;;;;;5131883;27;20595;-67
2022/04/23 00:40:31;;;;;;;10.90;5.47;;;15.40;84.90;;;;;;5132845;27;20035;-67
2022/04/23 00:42:58;;;;;;;9.00;3.85;;;15.40;84.60;;;;;;5130602;27;20385;-67
2022/04/23 00:45:28;;;;;;;7.93;3.65;;;15.30;84.50;;;;;;5123031;27;20030;-67
2022/04/23 00:47:54;;;;;;;9.00;4.78;;;15.30;84.90;;;;;;5126077;27;20046;-67
2022/04/23 00:50:23;;;;;;;14.48;5.82;;;15.30;84.70;;;;;;5129212;27;20031;-67
2022/04/23 00:52:50;;;;;;;12.30;5.25;;;15.30;84.70;;;;;;5127737;27;20172;-67
2022/04/23 00:55:17;;;;;;;14.32;6.72;;;15.20;84.60;;;;;;5111850;28;20032;-67
2022/04/23 00:57:43;;;;;;;13.80;6.13;;;15.30;84.60;;;;;;5112110;28;20056;-67
2022/04/23 01:00:09;;;;;;;18.02;6.85;;;15.20;84.60;;;;;;5116932;27;20035;-67
2022/04/23 01:02:38;;;;;;;13.85;6.35;;;15.20;84.30;;;;;;5115709;27;20028;-67
2022/04/23 01:05:09;;;;;;;13.30;5.93;;;15.20;84.20;;;;;;5127216;27;20031;-68
2022/04/23 01:07:42;;;;;;;16.23;6.78;;;15.20;84.20;;;;;;5132044;27;20034;-67
2022/04/23 01:10:08;;;;;;;12.73;6.25;;;15.10;84.20;;;;;;5122641;27;20155;-67
2022/04/23 01:12:38;;;;;;;9.80;5.88;;;15.10;84.20;;;;;;5132307;27;20039;-67
2022/04/23 01:15:10;;;;;;;12.50;6.10;;;15.10;84.50;;;;;;5131526;27;20332;-67
2022/04/23 01:17:37;;;;;;;13.65;6.90;;;15.10;84.50;;;;;;5127359;27;20679;-67
2022/04/23 01:20:12;;;;;;;11.82;5.88;;;15.00;84.50;;;;;;5124878;27;20102;-67
2022/04/23 01:22:40;;;;;;;13.18;6.10;;;15.00;84.80;;;;;;5132160;27;20031;-67
2022/04/23 01:25:08;;;;;;;16.02;7.53;;;14.90;85.30;;;;;;5132053;27;20019;-67
2022/04/23 01:27:34;;;;;;;15.65;6.80;;;14.90;85.40;;;;;;5131523;27;20110;-67
2022/04/23 01:30:04;;;;;;;14.90;6.90;;;14.80;85.40;;;;;;5132094;27;20098;-67
2022/04/23 01:32:30;;;;;;;13.63;6.57;;;14.80;85.60;;;;;;5132083;27;20035;-67
2022/04/23 01:34:56;;;;;;;7.70;3.08;;;14.80;85.70;;;;;;5124480;27;20032;-67
2022/04/23 01:37:25;;;;;;;18.23;6.70;;;14.70;86.10;;;;;;5128222;27;20374;-67
2022/04/23 01:39:50;;;;;;;16.58;5.82;;;14.70;86.10;;;;;;5131757;27;20058;-67
2022/04/23 01:42:18;;;;;;;13.90;5.93;;;14.70;86.10;;;;;;5131043;28;20073;-67
2022/04/23 01:44:48;;;;;;;8.48;5.03;;;14.60;86.10;;;;;;5131483;28;20027;-67
2022/04/23 01:47:14;;;;;;;11.40;5.90;;;14.60;86.10;;;;;;5131742;28;20043;-66
2022/04/23 01:49:41;;;;;;;11.77;6.13;;;14.60;86.10;;;;;;5130979;28;20396;-67
2022/04/23 01:52:07;;;;;;;11.95;6.85;;;14.60;86.00;;;;;;5120115;28;20035;-67
2022/04/23 01:54:34;;;;;;;14.20;5.90;;;14.60;85.90;;;;;;5122032;28;20470;-67
2022/04/23 01:57:00;;;;;;;9.02;4.78;;;14.60;86.00;;;;;;5131283;28;20408;-67
2022/04/23 01:59:26;;;;;;;13.02;6.35;;;14.60;86.00;;;;;;5131331;28;20083;-67
2022/04/23 02:01:52;;;;;;;13.25;7.15;;;14.60;86.00;;;;;;5132019;27;20031;-67
2022/04/23 02:04:18;;;;;;;11.65;6.40;;;14.60;86.20;;;;;;5134956;27;20550;-67
2022/04/23 02:06:44;;;;;;;13.27;6.85;;;14.50;86.10;;;;;;5135823;27;20027;-67
2022/04/23 02:09:10;;;;;;;13.38;6.63;;;14.50;86.30;;;;;;5135661;27;20114;-67
2022/04/23 02:11:36;;;;;;;11.32;6.05;;;14.50;86.30;;;;;;5134662;27;20780;-67
2022/04/23 02:14:02;;;;;;;12.98;6.65;;;14.40;86.40;;;;;;5135443;27;20027;-67
2022/04/23 02:16:32;;;;;;;12.13;5.85;;;14.40;86.60;;;;;;5134894;27;20046;-67
2022/04/23 02:18:58;;;;;;;11.15;6.35;;;14.30;86.50;;;;;;5135758;27;20038;-67
2022/04/23 02:21:25;;;;;;;11.95;6.28;;;14.40;86.70;;;;;;5135335;27;20402;-66
2022/04/23 02:23:51;;;;;;;19.63;6.18;;;14.30;86.70;;;;;;5134934;27;20091;-67
2022/04/23 02:26:17;;;;;;;15.40;5.95;;;14.20;86.70;;;;;;5135308;27;20054;-66
2022/04/23 02:28:43;;;;;;;12.77;6.60;;;14.20;86.70;;;;;;5135550;27;20470;-68
2022/04/23 02:31:08;;;;;;;14.38;6.55;;;14.20;86.80;;;;;;5134235;27;20035;-67
2022/04/23 02:33:34;;;;;;;16.40;7.28;;;14.20;86.90;;;;;;5135420;27;20023;-67
2022/04/23 02:36:00;;;;;;;10.30;6.03;;;14.20;87.10;;;;;;5118256;27;20115;-67
2022/04/23 02:38:26;;;;;;;9.93;6.28;;;14.10;87.00;;;;;;5132562;27;20102;-67
2022/04/23 02:40:52;;;;;;;11.23;6.70;;;14.10;87.10;;;;;;5135437;27;20106;-66
2022/04/23 02:43:17;;;;;;;11.73;6.35;;;14.10;87.10;;;;;;5123713;27;20044;-67
2022/04/23 02:45:44;;;;;;;9.90;5.68;;;14.10;87.10;;;;;;5131960;27;20485;-67
2022/04/23 02:48:10;;;;;;;13.85;5.97;;;14.10;87.10;;;;;;5135091;27;20432;-67
2022/04/23 02:50:37;;;;;;;10.00;5.53;;;14.10;87.20;;;;;;5133271;27;20722;-67
2022/04/23 02:53:05;;;;;;;16.98;6.63;;;14.10;87.20;;;;;;5124540;27;20645;-67
2022/04/23 02:55:31;;;;;;;6.93;2.85;;;14.10;87.20;;;;;;5133185;27;20024;-67
2022/04/23 02:58:01;;;;;;;15.80;6.15;;;14.10;87.10;;;;;;5133340;27;20035;-67
2022/04/23 03:00:27;;;;;;;13.48;6.55;;;14.00;87.10;;;;;;5129890;27;20399;-67
2022/04/23 03:02:54;;;;;;;16.30;6.53;;;14.00;87.30;;;;;;5133783;27;20027;-67
2022/04/23 03:05:21;;;;;;;16.05;7.10;;;14.00;87.30;;;;;;5133541;27;20034;-67
2022/04/23 03:07:48;;;;;;;11.80;5.88;;;14.00;87.30;;;;;;5132949;27;20019;-67
2022/04/23 03:10:15;;;;;;;12.80;5.82;;;14.00;87.40;;;;;;5133058;27;20110;-67
2022/04/23 03:12:42;;;;;;;13.10;6.18;;;13.90;87.50;;;;;;5132709;27;20027;-67
2022/04/23 03:15:17;;;;;;;9.23;5.30;;;13.90;87.60;;;;;;5133414;27;20038;-67
2022/04/23 03:17:43;;;;;;;11.07;5.93;;;13.90;87.70;;;;;;5133056;27;20118;-67
2022/04/23 03:20:10;;;;;;;12.82;6.70;;;13.90;87.60;;;;;;5133008;27;20363;-66
2022/04/23 03:22:37;;;;;;;10.55;5.70;;;13.90;87.70;;;;;;5133053;27;20227;-67
2022/04/23 03:25:04;;;;;;;14.88;6.35;;;13.90;87.70;;;;;;5130765;27;20446;-67
2022/04/23 03:27:30;;;;;;;14.50;7.50;;;13.80;87.70;;;;;;5132926;27;20110;-67
2022/04/23 03:30:04;;;;;;;15.02;5.82;;;13.80;87.60;;;;;;5133322;27;20030;-67
2022/04/23 03:32:30;;;;;;;14.10;7.43;;;13.80;87.60;;;;;;5133430;27;20039;-67
2022/04/23 03:34:56;;;;;;;12.95;6.97;;;13.80;87.50;;;;;;5132713;27;20109;-67
2022/04/23 03:37:22;;;;;;;14.10;6.70;;;13.70;87.50;;;;;;5130410;27;20251;-67
2022/04/23 03:39:48;;;;;;;13.55;6.88;;;13.70;87.50;;;;;;5133198;27;20023;-67
2022/04/23 03:42:15;;;;;;;7.38;4.22;;;13.70;87.50;;;;;;5132224;27;20041;-67
2022/04/23 03:44:41;;;;;;;8.77;5.07;;;13.70;87.50;;;;;;5132785;27;20027;-67
2022/04/23 03:47:06;;;;;;;12.05;7.40;;;13.70;87.60;;;;;;5132662;27;20051;-67
2022/04/23 03:49:32;;;;;;;13.85;6.20;;;13.70;87.60;;;;;;5132285;27;20027;-67
2022/04/23 03:51:58;;;;;;;16.55;7.57;;;13.70;87.60;;;;;;5132185;27;20042;-67
2022/04/23 03:54:24;;;;;;;11.70;6.85;;;13.70;87.60;;;;;;5132138;27;20031;-67
2022/04/23 03:56:50;;;;;;;11.45;7.68;;;13.60;87.50;;;;;;5132200;27;20027;-67
2022/04/23 03:59:20;;;;;;;11.20;6.18;;;13.60;87.50;;;;;;5133803;27;20027;-67
2022/04/23 04:01:47;;;;;;;12.73;7.47;;;13.60;87.50;;;;;;5133430;27;20033;-67
2022/04/23 04:04:14;;;;;;;13.60;6.32;;;13.60;87.40;;;;;;5133175;27;20110;-67
2022/04/23 04:06:41;;;;;;;14.45;7.13;;;13.60;87.40;;;;;;5120004;27;20027;-67
2022/04/23 04:09:07;;;;;;;9.88;4.30;;;13.50;87.40;;;;;;5125413;27;20047;-67
2022/04/23 04:12:01;;;;;;;9.75;5.88;;;13.50;87.40;;;;;;5130607;27;20035;-67
2022/04/23 04:14:18;;;;;;;11.93;6.88;;;13.50;87.40;;;;;;5133017;27;20031;-67
2022/04/23 04:16:45;;;;;;;12.95;6.68;;;13.50;87.70;;;;;;5132504;27;20493;-67
2022/04/23 04:19:14;;;;;;;12.25;6.80;;;13.40;87.50;;;;;;5133186;27;20070;-67
2022/04/23 04:21:43;;;;;;;11.27;6.78;;;13.40;87.50;;;;;;5133492;27;20052;-67
2022/04/23 04:24:12;;;;;;;9.45;5.65;;;13.40;87.50;;;;;;5132157;27;20039;-67
2022/04/23 04:26:40;;;;;;;8.82;5.95;;;13.40;87.60;;;;;;5132512;27;20042;-66
2022/04/23 04:29:06;;;;;;;11.20;5.30;;;13.30;87.70;;;;;;5132949;27;20371;-66
2022/04/23 04:31:47;;;;;;;15.25;5.47;;;13.30;87.70;;;;;;5122087;27;20048;-67
2022/04/23 04:34:30;;;;;;;10.63;6.97;;;13.30;87.70;;;;;;5132484;27;20035;-66
2022/04/23 04:37:10;;;;;;;9.13;5.90;;;13.30;87.70;;;;;;5132739;27;20027;-67
2022/04/23 04:39:41;;;;;;;15.90;7.07;;;13.30;87.60;;;;;;5133120;27;20118;-67
2022/04/23 04:42:14;;;;;;;10.35;6.82;;;13.20;87.70;;;;;;5132474;27;20459;-67
2022/04/23 04:44:40;;;;;;;11.20;6.85;;;13.20;87.60;;;;;;5132274;27;20058;-67
2022/04/23 04:47:10;;;;;;;17.40;7.38;;;13.20;87.60;;;;;;5119555;27;20512;-66
2022/04/23 04:49:37;;;;;;;15.60;6.85;;;13.20;87.60;;;;;;5132735;27;20110;-67
2022/04/23 04:52:03;;;;;;;12.57;6.63;;;13.10;87.50;;;;;;5119538;27;20070;-67
2022/04/23 04:54:29;;;;;;;11.77;6.10;;;13.10;87.40;;;;;;5132409;27;20100;-66
2022/04/23 04:57:02;;;;;;;13.43;6.40;;;13.10;87.70;;;;;;5132708;27;20023;-67
2022/04/23 04:59:28;;;;;;;9.05;5.10;;;13.10;87.90;;;;;;5131604;27;20787;-66
2022/04/23 05:01:54;;;;;;;10.23;5.75;;;13.10;88.10;;;;;;5132405;27;20031;-66
2022/04/23 05:04:20;;;;;;;9.05;5.55;;;13.00;88.00;;;;;;5132115;27;20515;-67
2022/04/23 05:06:46;;;;;;;9.77;6.07;;;13.00;88.00;;;;;;5131718;27;20088;-67
2022/04/23 05:09:12;;;;;;;10.13;5.45;;;13.00;88.40;;;;;;5127072;27;20028;-66
2022/04/23 05:11:38;;;;;;;11.52;6.55;;;12.90;88.50;;;;;;5132370;27;20390;-66
2022/04/23 05:14:04;;;;;;;7.13;4.63;;;13.00;88.40;;;;;;5131568;27;20027;-67
2022/04/23 05:16:30;;;;;;;15.70;6.30;;;12.90;88.30;;;;;;5132393;27;20031;-66
2022/04/23 05:18:55;;;;;;;9.27;6.63;;;12.90;88.50;;;;;;5132064;27;20019;-67
2022/04/23 05:21:21;;;;;;;11.23;6.53;;;12.90;88.30;;;;;;5131347;27;20083;-67
2022/04/23 05:23:46;;;;;;;13.73;7.05;;;12.90;88.10;;;;;;5132213;27;20034;-67
2022/04/23 05:26:12;;;;;;;12.38;6.50;;;12.90;88.20;;;;;;5132015;27;20062;-67
2022/04/23 05:28:40;;;;;;;7.90;4.43;;;12.90;88.30;;;;;;5131821;27;20095;-67
2022/04/23 05:31:06;;;;;;;10.82;6.95;;;12.90;88.50;;;;;;5131980;27;20053;-66
2022/04/23 05:33:32;;;;;;;12.35;6.55;;;12.80;88.80;;;;;;5131398;27;20031;-66
2022/04/23 05:35:58;;;;;;;11.40;6.28;;;12.90;88.70;;;;;;5131777;27;20050;-66
2022/04/23 05:38:23;;;;;;;11.50;6.43;;;12.80;88.50;;;;;;5132018;27;20039;-67
2022/04/23 05:40:49;;;;;;;11.45;7.00;;;12.80;88.40;;;;;;5131525;27;20039;-67
2022/04/23 05:43:18;;;;;;;9.32;5.88;;;12.90;88.70;;;;;;5131773;28;20099;-67
2022/04/23 05:45:44;;;;;;;8.85;5.25;;;12.90;88.60;;;;;;5131539;28;20085;-67
2022/04/23 05:48:10;;;;;;;12.07;7.35;;;12.90;88.60;;;;;;5131325;28;20035;-67
2022/04/23 05:50:36;;;;;;;13.73;6.22;;;12.90;88.60;;;;;;5130359;28;20516;-67
2022/04/23 05:53:02;;;;;;;7.57;4.95;;;12.90;88.60;;;;;;5131609;28;20024;-67
2022/04/23 05:55:27;;;;;;;12.40;5.20;;;12.80;89.20;;;;;;5130964;28;20454;-67
2022/04/23 05:57:53;;;;;;;10.48;6.50;;;12.80;89.30;;;;;;5130899;28;20031;-69
2022/04/23 06:00:19;;;;;;;10.75;6.32;;;12.80;89.10;;;;;;5130616;28;20072;-68
2022/04/23 06:02:45;;;;;;;8.63;5.38;;;12.80;88.90;;;;;;5130216;28;20080;-68
2022/04/23 06:05:10;;;;;;;9.15;6.63;;;12.80;89.00;;;;;;5130963;28;20416;-68
2022/04/23 06:07:36;;;;;;;6.97;4.43;;;12.80;89.10;;;;;;5128955;28;20123;-66
2022/04/23 06:10:02;;;;;;;8.80;5.85;;;12.80;89.90;;;;;;5128070;28;20032;-66
2022/04/23 06:12:28;;;;;;;9.32;5.00;;;12.80;89.50;;;;;;5129343;28;20037;-66
2022/04/23 06:14:53;;;;;;;6.68;4.07;;;12.80;89.40;;;;;;5128296;28;20066;-66
2022/04/23 06:17:24;;;;;;;7.47;4.53;;;12.90;90.00;;;;;;5127796;28;20485;-67
2022/04/23 06:19:50;;;;;;;14.05;5.93;;;12.90;89.60;;;;;;5128670;28;20126;-67
2022/04/23 06:22:19;;;;;;;4.32;3.17;;;12.90;89.80;;;;;;5119223;28;21611;-67
2022/04/23 06:24:45;;;;;;;12.15;7.10;;;12.90;90.00;;;;;;5128291;28;20023;-66
2022/04/23 06:27:11;;;;;;;8.02;4.95;;;12.90;90.00;;;;;;5129701;28;20031;-67
2022/04/23 06:29:38;;;;;;;3.17;2.22;;;13.00;90.00;;;;;;5127915;28;20050;-67
2022/04/23 06:32:04;;;;;;;8.45;5.60;;;13.00;90.00;;;;;;5128100;28;20107;-65
2022/04/23 06:34:30;;;;;;;6.18;3.83;;;13.10;89.90;;;;;;5128299;28;20027;-66
2022/04/23 06:36:55;;;;;;;7.95;5.05;;;13.00;90.00;;;;;;5126308;28;20038;-66
2022/04/23 06:39:21;;;;;;;10.70;7.00;;;13.10;90.10;;;;;;5127549;28;20075;-66
2022/04/23 06:41:46;;;;;;;11.93;6.88;;;13.10;89.90;;;;;;5126319;28;20030;-66
2022/04/23 06:44:13;;;;;;;11.45;7.13;;;13.10;89.30;;;;;;5108112;28;20051;-66
2022/04/23 06:46:39;;;;;;;5.40;3.30;;;13.20;89.30;;;;;;5128101;28;20120;-66
2022/04/23 06:49:05;;;;;;;10.93;7.05;;;13.20;89.20;;;;;;5129948;27;20088;-66
2022/04/23 06:51:37;;;;;;;12.15;8.15;;;13.20;88.80;;;;;;5128857;27;20091;-66
2022/04/23 06:54:06;;;;;;;8.55;5.18;;;13.30;88.50;;;;;;5131679;27;20027;-66
2022/04/23 06:56:32;;;;;;;9.05;5.93;;;13.20;88.70;;;;;;5132502;27;20101;-66
2022/04/23 06:58:58;;;;;;;10.32;5.35;;;13.30;88.80;;;;;;5130917;27;20080;-66
2022/04/23 07:01:24;;;;;;;7.80;3.60;;;13.30;88.70;;;;;;5131816;27;20035;-63
2022/04/23 07:03:49;;;;;;;7.22;4.55;;;13.30;88.80;;;;;;5131377;27;20019;-65
2022/04/23 07:06:18;;;;;;;4.63;3.00;;;13.40;88.70;;;;;;5131337;27;20030;-67
2022/04/23 07:08:44;;;;;;;11.00;4.22;;;13.40;88.90;;;;;;5130830;27;20053;-69
2022/04/23 07:11:13;;;;;;;13.80;6.03;;;13.40;89.00;;;;;;5131432;27;20035;-67
2022/04/23 07:13:39;;;;;;;6.38;4.10;;;13.50;88.50;;;;;;5131300;27;20161;-66
2022/04/23 07:16:09;;;;;;;5.38;3.95;;;13.60;88.80;;;;;;5131122;27;20038;-65
2022/04/23 07:18:39;;;;;;;3.65;2.28;;;13.60;90.10;;;;;;5128358;27;20019;-67
2022/04/23 07:21:05;;;;;;;8.15;4.40;;;13.60;90.00;;;;;;5128949;27;20035;-67
2022/04/23 07:26:15;;;;;;;11.90;6.75;;;13.70;89.50;;;;;;5128053;27;20038;-70
2022/04/23 07:28:41;;;;;;;9.65;5.90;;;13.70;89.00;;;;;;5130338;27;20048;-69
2022/04/23 07:31:06;;;;;;;5.85;3.67;;;13.70;89.20;;;;;;5129972;27;20080;-69
2022/04/23 07:39:00;;;;;;;8.43;4.88;;;13.80;88.00;;;;;;5129606;27;20786;-70
2022/04/23 07:41:27;;;;;;;6.28;3.65;;;13.80;87.90;;;;;;5129046;27;20035;-70
2022/04/23 07:43:54;;;;;;;8.35;4.75;;;13.90;88.30;;;;;;5129214;27;20379;-70
2022/04/23 07:46:19;;;;;;;8.07;5.00;;;13.90;88.40;;;;;;5127881;27;20500;-69
2022/04/23 07:48:46;;;;;;;5.25;3.42;;;13.90;88.50;;;;;;5127751;27;20131;-69
2022/04/23 07:51:11;;;;;;;15.43;7.35;;;14.00;89.70;;;;;;5127095;27;20439;-70
2022/04/23 07:53:37;;;;;;;7.90;5.38;;;14.00;88.70;;;;;;5127769;27;20027;-70
2022/04/23 07:56:04;;;;;;;7.80;4.32;;;14.00;88.60;;;;;;5127689;27;20051;-70
2022/04/23 07:58:30;;;;;;;6.15;3.50;;;14.10;89.10;;;;;;5128647;27;20027;-69
2022/04/23 08:00:55;;;;;;;5.68;3.17;;;14.10;89.20;;;;;;5126754;27;20031;-66
2022/04/23 08:03:21;;;;;;;6.72;2.97;;;14.10;89.30;;;;;;5131312;27;20055;-67
2022/04/23 08:05:51;;;;;;;7.65;4.32;;;14.10;89.30;;;;;;5130415;27;20046;-73
2022/04/23 08:08:21;;;;;;;5.97;3.92;;;14.20;89.90;;;;;;5132096;27;20031;-68
2022/04/23 08:10:47;;;;;;;7.43;4.25;;;14.20;89.30;;;;;;5122970;27;20043;-67
2022/04/23 08:13:13;;;;;;;9.98;5.00;;;14.30;89.10;;;;;;5122106;27;20023;-66
2022/04/23 08:15:39;;;;;;;8.30;4.40;;;14.30;89.00;;;;;;5128240;27;20083;-68
2022/04/23 08:18:06;;;;;;;8.50;4.45;;;14.30;89.10;;;;;;5129820;27;20051;-70
2022/04/23 08:20:32;;;;;;;6.70;3.60;;;14.30;89.00;;;;;;5131948;27;20027;-68
2022/04/23 08:22:57;;;;;;;7.53;4.05;;;14.40;89.20;;;;;;5117294;27;20035;-68
2022/04/23 08:25:23;;;;;;;8.30;3.90;;;14.40;89.50;;;;;;5129645;27;20026;-67
2022/04/23 08:27:51;;;;;;;6.65;3.88;;;14.40;89.40;;;;;;5130284;27;20085;-68
2022/04/23 08:30:36;;;;;;;8.00;4.32;;;14.40;89.40;;;;;;5127952;27;20522;-65
2022/04/23 08:33:03;;;;;;;7.43;3.53;;;14.40;88.90;;;;;;5129687;27;20023;-65
2022/04/23 08:35:29;;;;;;;6.95;3.30;;;14.40;88.60;;;;;;5130513;27;20023;-68
2022/04/23 08:37:54;;;;;;;4.97;3.03;;;14.50;88.70;;;;;;5127502;27;20042;-69
2022/04/23 08:40:21;;;;;;;6.10;4.07;;;14.50;89.00;;;;;;5125671;27;20026;-68
2022/04/23 08:42:47;;;;;;;6.07;4.32;;;14.60;88.60;;;;;;5122931;27;20023;-67
2022/04/23 08:45:13;;;;;;;10.30;5.10;;;14.60;88.40;;;;;;5128155;27;20045;-67
2022/04/23 08:47:46;;;;;;;7.70;4.38;;;14.70;88.80;;;;;;5126488;27;20438;-67
2022/04/23 08:50:19;;;;;;;9.38;5.55;;;14.70;89.10;;;;;;5126835;27;20043;-67
2022/04/23 08:52:51;;;;;;;10.17;4.40;;;14.70;89.00;;;;;;5128539;27;20047;-67
2022/04/23 08:55:18;;;;;;;6.22;3.00;;;14.70;89.30;;;;;;5126852;27;20080;-67
2022/04/23 08:57:44;;;;;;;4.20;3.33;;;14.80;89.50;;;;;;5127205;27;20019;-67
2022/04/23 09:00:14;;;;;;;10.27;5.68;;;14.80;89.30;;;;;;5127635;27;20030;-67
2022/04/23 09:02:41;;;;;;;7.07;4.03;;;14.80;89.60;;;;;;5126436;27;20482;-67
2022/04/23 09:05:07;;;;;;;7.45;5.00;;;14.80;89.60;;;;;;5126944;27;20023;-68
2022/04/23 09:07:34;;;;;;;7.32;3.80;;;14.90;89.70;;;;;;5127169;27;20062;-68
2022/04/23 09:10:00;;;;;;;7.38;3.95;;;14.80;89.60;;;;;;5126529;27;20074;-68
2022/04/23 09:12:28;;;;;;;7.03;4.25;;;14.80;89.20;;;;;;5127458;27;20066;-66
2022/04/23 09:23:39;;;;;;;8.73;4.28;;;14.90;89.40;;;;;;5126313;27;20033;-66
2022/04/23 09:23:43;;;;;;;4.80;3.35;;;15.00;89.30;;;;;;5126526;27;20500;-66
2022/04/23 09:26:21;;;;;;;5.75;3.65;;;15.00;89.00;;;;;;5128144;27;20034;-66
2022/04/23 09:28:48;;;;;;;8.55;5.00;;;15.00;88.60;;;;;;5127996;27;20031;-66
2022/04/23 09:31:15;;;;;;;6.82;4.18;;;15.00;88.70;;;;;;5128675;27;20027;-66
2022/04/23 09:33:49;;;;;;;4.90;3.33;;;15.10;88.70;;;;;;5129032;27;20466;-67
2022/04/23 09:36:14;;;;;;;;;;;15.10;88.50;;;;;;5128399;27;20398;-66
2022/04/23 09:38:40;;;;;;;11.23;5.63;;;15.10;88.80;;;;;;5126416;27;19907;-66
2022/04/23 09:41:21;;;;;;;6.32;3.35;;;15.10;88.00;;;;;;5126018;27;20091;-66
2022/04/23 09:44:03;;;;;;;6.75;3.95;;;15.20;88.70;;;;;;5124715;28;20027;-66
2022/04/23 09:46:48;;;;;;;5.70;3.50;;;15.20;88.60;;;;;;5126594;28;20062;-66
2022/04/23 09:49:21;;;;;;;7.68;4.63;;;15.20;88.10;;;;;;5127345;28;20057;-66
2022/04/23 09:52:07;;;;;;;4.57;2.53;;;15.30;88.30;;;;;;5126237;28;20039;-68
2022/04/23 09:54:33;;;;;;;7.15;4.38;;;15.30;88.50;;;;;;5125227;28;20511;-66
2022/04/23 09:57:00;;;;;;;8.50;4.70;;;15.30;88.20;;;;;;5126258;28;20054;-66
2022/04/23 09:59:29;;;;;;;7.18;3.53;;;15.40;87.60;;;;;;5127202;28;20035;-67
2022/04/23 10:01:55;;;;;;;9.30;4.90;;;15.40;87.40;;;;;;5126381;28;20080;-67
2022/04/23 10:04:23;;;;;;;7.75;4.32;;;15.40;87.70;;;;;;5126375;28;20019;-67
2022/04/23 10:06:51;;;;;;;12.93;3.20;;;15.50;87.90;;;;;;5126349;28;20033;-68
2022/04/23 10:09:19;;;;;;;7.95;4.50;;;15.50;88.30;;;;;;5125924;28;20027;-68
2022/04/23 10:11:52;;;;;;;3.88;2.72;;;15.60;88.00;;;;;;5126675;28;20066;-68
2022/04/23 10:14:20;;;;;;;4.07;2.60;;;15.50;87.10;;;;;;5125972;28;20501;-67
2022/04/23 10:16:48;;;;;;;5.28;3.22;;;15.60;87.40;;;;;;5125876;28;20264;-67
2022/04/23 10:19:15;;;;;;;7.05;3.90;;;15.60;87.40;;;;;;5126190;28;20066;-68
2022/04/23 10:21:56;;;;;;;5.65;3.40;;;15.60;86.90;;;;;;5126604;28;20045;-67
2022/04/23 10:24:36;;;;;;;4.15;2.85;;;15.60;86.50;;;;;;5132721;27;20035;-68
2022/04/23 10:27:07;;;;;;;7.03;4.18;;;15.70;87.50;;;;;;5122460;27;20772;-69
2022/04/23 10:29:33;;;;;;;9.52;5.30;;;15.70;86.80;;;;;;5133083;27;20027;-69
2022/04/23 10:32:11;;;;;;;8.23;5.10;;;15.70;84.20;;;;;;5133919;27;20754;-69
2022/04/23 10:34:38;;;;;;;7.15;3.78;;;15.70;85.00;;;;;;5122727;27;20031;-68
2022/04/23 10:37:19;;;;;;;4.45;2.70;;;15.80;85.40;;;;;;5133546;27;20035;-68
2022/04/23 10:40:05;;;;;;;4.25;2.75;;;15.80;86.80;;;;;;5134206;27;20031;-68
2022/04/23 10:42:32;;;;;;;8.20;4.53;;;15.90;87.50;;;;;;5106964;27;20091;-68
2022/04/23 10:45:03;;;;;;;6.05;4.15;;;15.90;86.20;;;;;;5114814;27;20064;-68
2022/04/23 10:47:34;;;;;;;5.75;3.50;;;16.00;85.40;;;;;;5134348;27;20486;-68
2022/04/23 10:50:20;;;;;;;5.05;3.22;;;16.00;85.40;;;;;;5132013;27;20045;-68
2022/04/23 10:52:47;;;;;;;5.88;3.35;;;16.10;84.90;;;;;;5134399;27;20130;-68
2022/04/23 10:55:14;;;;;;;8.95;4.07;;;16.10;84.60;;;;;;5132426;27;20023;-68
2022/04/23 10:57:46;;;;;;;4.57;3.10;;;16.10;83.90;;;;;;5130256;27;20034;-71
2022/04/23 11:00:16;;;;;;;4.78;2.95;;;16.10;85.00;;;;;;5130344;27;20390;-68
2022/04/23 11:02:46;;;;;;;2.33;1.75;;;16.20;84.40;;;;;;5130219;27;20378;-69
2022/04/23 11:13:59;;;;;;;7.75;3.40;;;16.40;83.10;;;;;;5128662;27;20034;-69
2022/04/23 11:16:27;;;;;;;9.85;4.15;;;16.40;83.80;;;;;;5130520;27;20039;-66
2022/04/23 11:18:58;;;;;;;7.00;4.05;;;16.40;81.90;;;;;;5129651;27;20027;-67
2022/04/23 11:21:32;;;;;;;1.95;1.42;;;16.50;82.80;;;;;;5131653;27;20080;-69
2022/04/23 11:24:00;;;;;;;3.95;2.70;;;16.50;83.60;;;;;;5129589;27;20176;-67
2022/04/23 11:26:45;;;;;;;5.53;4.07;;;16.50;83.80;;;;;;5131587;27;20042;-68
2022/04/23 11:29:12;;;;;;;9.70;3.22;;;16.50;82.40;;;;;;5132092;27;20045;-68
2022/04/23 11:31:37;;;;;;;7.15;4.00;;;16.60;82.40;;;;;;5132729;27;20100;-68
2022/04/23 11:34:04;;;;;;;3.75;2.90;;;16.70;83.60;;;;;;5131331;27;20031;-67
2022/04/23 11:36:34;;;;;;;3.60;2.38;;;16.70;83.00;;;;;;5132268;27;20035;-68
2022/04/23 11:39:04;;;;;;;5.28;3.13;;;16.70;82.70;;;;;;5131717;27;20027;-67
2022/04/23 11:41:31;;;;;;;4.07;2.85;;;16.80;82.30;;;;;;5132361;27;20035;-67
2022/04/23 11:43:57;;;;;;;8.52;3.22;;;16.80;82.60;;;;;;5132316;27;20015;-67
2022/04/23 11:46:22;;;;;;;4.93;3.05;;;16.80;82.70;;;;;;5130133;27;20882;-67
2022/04/23 11:48:50;;;;;;;6.75;2.60;;;16.80;81.70;;;;;;5130965;27;20022;-67
2022/04/23 11:51:20;;;;;;;11.45;3.72;;;16.90;81.30;;;;;;5131045;27;20041;-66
2022/04/23 11:53:59;;;;;;;3.92;2.17;;;17.00;78.00;;;;;;5129677;27;20493;-67
2022/04/23 11:56:33;;;;;;;8.60;4.60;;;17.00;80.70;;;;;;5130686;27;20558;-67
2022/04/23 11:59:03;;;;;;;6.10;3.60;;;17.00;79.60;;;;;;5130677;27;20027;-68
2022/04/23 12:01:29;;;;;;;6.55;3.03;;;17.00;78.90;;;;;;5131337;27;20035;-67
2022/04/23 12:03:56;;;;;;;6.57;3.22;;;17.10;79.80;;;;;;5131625;27;20023;-67
2022/04/23 12:06:23;;;;;;;4.28;2.08;;;17.10;79.60;;;;;;5123371;27;20104;-67
2022/04/23 12:08:51;;;;;;;3.53;2.08;;;17.10;82.30;;;;;;5116633;27;20382;-67
2022/04/23 12:11:26;;;;;;;6.15;3.95;;;17.20;82.40;;;;;;5132918;27;20440;-71
2022/04/23 12:13:52;;;;;;;3.95;2.72;;;17.20;79.80;;;;;;5132420;27;20027;-69
2022/04/23 12:16:39;;;;;;;8.10;4.25;;;17.20;82.10;;;;;;5131165;27;20043;-70
2022/04/23 12:19:07;;;;;;;2.45;1.67;;;17.20;81.10;;;;;;5130846;27;20037;-71
2022/04/23 12:21:34;;;;;;;6.35;3.85;;;17.30;83.70;;;;;;5130962;27;20099;-69
2022/04/23 12:24:01;;;;;;;7.40;2.65;;;17.20;80.40;;;;;;5131639;27;20030;-69
2022/04/23 12:26:37;;;;;;;1.60;1.48;;;17.30;81.00;;;;;;5124653;27;20115;-69
2022/04/23 12:43:17;;;;;;;2.00;1.80;;;17.40;83.10;;;;;;5127118;27;20029;-68
2022/04/23 12:45:43;;;;;;;3.15;2.15;;;17.40;82.50;;;;;;5129098;27;20023;-67
2022/04/23 12:48:09;;;;;;;3.70;2.22;;;17.50;83.20;;;;;;5131325;27;20176;-67
2022/04/23 12:50:34;;;;;;;2.30;1.40;;;17.50;84.70;;;;;;5129815;27;20042;-67
2022/04/23 12:53:00;;;;;;;5.10;3.50;;;17.50;83.90;;;;;;5131002;27;20031;-67
2022/04/23 12:55:36;;;;;;;3.03;2.20;;;17.60;79.50;;;;;;5131640;27;20050;-67
2022/04/23 12:58:02;;;;;;;7.63;2.67;;;17.60;82.00;;;;;;5129635;27;20042;-67
2022/04/23 13:00:29;;;;;;;4.38;2.25;;;17.60;80.60;;;;;;5130937;27;20019;-68
2022/04/23 13:02:58;;;;;;;3.85;2.63;;;17.70;81.40;;;;;;5131171;27;20031;-67
2022/04/23 13:05:25;;;;;;;2.38;1.92;;;17.70;79.60;;;;;;5125523;27;20122;-66
2022/04/23 13:10:36;;;;;;;4.40;2.70;;;17.70;79.40;;;;;;5122182;27;20053;-68
2022/04/23 13:13:02;;;;;;;2.70;1.95;;;17.80;79.50;;;;;;5125517;27;20528;-68
2022/04/23 13:15:29;;;;;;;2.55;1.35;;;17.80;80.00;;;;;;5131529;27;20435;-68
2022/04/23 13:17:55;;;;;;;6.03;2.17;;;17.80;80.70;;;;;;5129834;27;20062;-68
2022/04/23 13:20:24;;;;;;;2.75;1.92;;;17.80;79.90;;;;;;5131619;27;20027;-68
2022/04/23 13:22:49;;;;;;;6.28;2.60;;;17.90;81.00;;;;;;5131232;27;20505;-67
2022/04/23 13:25:18;;;;;;;4.82;2.25;;;18.00;78.00;;;;;;5128669;27;20501;-68
2022/04/23 13:27:44;;;;;;;6.45;3.08;;;18.00;78.60;;;;;;5131361;27;20027;-68